createdAt,value
2018-07-22T00:01:43.704Z,20.10
2018-07-22T00:04:12.284Z,20.00
2018-07-22T00:06:40.916Z,19.90
2018-07-22T00:09:11.304Z,19.80
2018-07-22T00:11:39.947Z,19.70
2018-07-22T00:14:08.735Z,19.60
2018-07-22T00:16:37.550Z,19.70
2018-07-22T00:19:06.263Z,19.80
2018-07-22T00:21:34.890Z,19.70
2018-07-22T00:24:10.205Z,19.70
2018-07-22T00:26:38.915Z,19.70
2018-07-22T00:29:07.635Z,19.60
2018-07-22T00:31:36.197Z,19.50
2018-07-22T00:34:04.871Z,19.40
2018-07-22T00:36:33.522Z,19.30
2018-07-22T00:39:02.271Z,19.20
2018-07-22T00:41:30.958Z,19.20
2018-07-22T00:43:59.565Z,19.30
2018-07-22T00:46:28.125Z,19.30
2018-07-22T00:48:56.707Z,19.40
2018-07-22T00:51:25.429Z,19.30
2018-07-22T00:53:54.013Z,19.30
2018-07-22T00:56:22.656Z,19.20
2018-07-22T00:58:51.194Z,19.20
2018-07-22T01:01:20.135Z,19.20
2018-07-22T01:03:48.926Z,19.10
2018-07-22T01:06:17.541Z,19.10
2018-07-22T01:08:46.067Z,19.10
2018-07-22T01:11:14.656Z,19.10
2018-07-22T01:13:43.322Z,19.10
2018-07-22T01:16:11.909Z,19.10
2018-07-22T01:18:40.558Z,19.10
2018-07-22T01:21:09.116Z,19.00
2018-07-22T01:23:37.688Z,19.00
2018-07-22T01:26:06.450Z,18.90
2018-07-22T01:28:35.055Z,18.90
2018-07-22T01:31:03.664Z,18.80
2018-07-22T01:33:32.338Z,18.80
2018-07-22T01:36:00.920Z,18.90
2018-07-22T01:38:29.530Z,18.90
2018-07-22T01:40:58.122Z,18.90
2018-07-22T01:43:26.672Z,18.90
2018-07-22T01:45:55.238Z,18.70
2018-07-22T01:48:23.830Z,18.70
2018-07-22T01:50:52.394Z,18.60
2018-07-22T01:53:20.978Z,18.70
2018-07-22T01:55:49.538Z,18.70
2018-07-22T01:58:18.177Z,18.70
2018-07-22T02:00:46.703Z,18.60
2018-07-22T02:03:15.343Z,18.50
2018-07-22T02:05:44.062Z,18.50
2018-07-22T02:08:12.711Z,18.40
2018-07-22T02:10:41.330Z,18.50
2018-07-22T02:13:10.201Z,18.60
2018-07-22T02:15:38.770Z,18.60
2018-07-22T02:18:07.386Z,18.50
2018-07-22T02:20:35.957Z,18.50
2018-07-22T02:23:04.582Z,18.40
2018-07-22T02:25:33.164Z,18.30
2018-07-22T02:28:01.712Z,18.30
2018-07-22T02:30:30.417Z,18.40
2018-07-22T02:32:59.324Z,18.50
2018-07-22T02:35:27.891Z,18.40
2018-07-22T02:37:56.539Z,18.30
2018-07-22T02:40:25.127Z,18.20
2018-07-22T02:42:53.771Z,18.10
2018-07-22T02:45:22.322Z,18.10
2018-07-22T02:47:50.954Z,18.30
2018-07-22T02:50:19.506Z,18.40
2018-07-22T02:52:48.068Z,18.40
2018-07-22T02:55:16.642Z,18.40
2018-07-22T02:57:45.220Z,18.50
2018-07-22T03:00:13.816Z,18.60
2018-07-22T03:02:42.412Z,18.60
2018-07-22T03:05:11.010Z,18.60
2018-07-22T03:07:39.558Z,18.50
2018-07-22T03:10:08.130Z,18.50
2018-07-22T03:12:36.726Z,18.60
2018-07-22T03:15:05.850Z,18.60
2018-07-22T03:17:34.417Z,18.60
2018-07-22T03:20:03.018Z,18.70
2018-07-22T03:22:31.630Z,18.60
2018-07-22T03:25:00.248Z,18.60
2018-07-22T03:27:28.794Z,18.60
2018-07-22T03:29:57.371Z,18.70
2018-07-22T03:32:25.955Z,18.90
2018-07-22T03:34:54.510Z,18.80
2018-07-22T03:37:23.077Z,18.90
2018-07-22T03:39:51.702Z,18.90
2018-07-22T03:42:20.298Z,18.80
2018-07-22T03:44:48.890Z,18.90
2018-07-22T03:47:17.477Z,19.00
2018-07-22T03:49:45.991Z,18.90
2018-07-22T03:52:14.556Z,18.80
2018-07-22T03:54:43.186Z,18.80
2018-07-22T03:57:11.827Z,18.90
2018-07-22T03:59:40.397Z,18.90
2018-07-22T04:02:08.954Z,19.00
2018-07-22T04:04:37.518Z,19.00
2018-07-22T04:07:06.159Z,19.00
2018-07-22T04:09:34.773Z,19.00
2018-07-22T04:12:03.405Z,19.00
2018-07-22T04:14:32.003Z,19.20
2018-07-22T04:17:00.624Z,19.20
2018-07-22T04:19:29.212Z,19.10
2018-07-22T04:21:57.803Z,19.10
2018-07-22T04:24:26.421Z,19.20
2018-07-22T04:26:55.013Z,19.20
2018-07-22T04:29:23.632Z,19.20
2018-07-22T04:31:52.211Z,19.20
2018-07-22T04:34:20.765Z,19.20
2018-07-22T04:36:49.330Z,19.30
2018-07-22T04:39:17.929Z,19.30
2018-07-22T04:41:46.515Z,19.30
2018-07-22T04:44:15.059Z,19.20
2018-07-22T04:46:43.611Z,19.20
2018-07-22T04:49:12.250Z,19.20
2018-07-22T04:51:40.843Z,19.20
2018-07-22T04:54:09.415Z,19.40
2018-07-22T04:56:38.131Z,19.40
2018-07-22T04:59:06.803Z,19.50
2018-07-22T05:01:35.363Z,19.60
2018-07-22T05:04:03.927Z,19.60
2018-07-22T05:06:32.466Z,19.70
2018-07-22T05:09:01.031Z,19.70
2018-07-22T05:11:29.550Z,19.90
2018-07-22T05:13:58.091Z,20.00
2018-07-22T05:16:26.676Z,20.20
2018-07-22T05:18:55.253Z,20.30
2018-07-22T05:21:23.806Z,20.50
2018-07-22T05:23:52.351Z,20.80
2018-07-22T05:26:21.038Z,21.30
2018-07-22T05:28:49.617Z,21.90
2018-07-22T05:31:18.235Z,22.50
2018-07-22T05:33:46.891Z,23.30
2018-07-22T05:36:15.535Z,24.10
2018-07-22T05:38:44.182Z,24.60
2018-07-22T05:41:12.788Z,24.80
2018-07-22T05:43:41.474Z,25.00
2018-07-22T05:46:10.065Z,25.50
2018-07-22T05:48:38.637Z,26.20
2018-07-22T05:51:07.202Z,27.00
2018-07-22T05:53:35.778Z,27.00
2018-07-22T05:56:04.382Z,27.20
2018-07-22T05:58:32.970Z,27.40
2018-07-22T06:01:01.657Z,27.30
2018-07-22T06:03:30.345Z,27.20
2018-07-22T06:05:58.935Z,26.50
2018-07-22T06:08:27.536Z,25.80
2018-07-22T06:10:56.216Z,26.20
2018-07-22T06:13:24.769Z,26.70
2018-07-22T06:15:53.364Z,27.10
2018-07-22T06:18:21.943Z,27.30
2018-07-22T06:20:50.519Z,27.80
2018-07-22T06:23:19.212Z,28.30
2018-07-22T06:25:47.817Z,27.70
2018-07-22T06:28:16.420Z,26.60
2018-07-22T06:30:45.048Z,25.60
2018-07-22T06:33:13.690Z,24.80
2018-07-22T06:35:42.275Z,24.20
2018-07-22T06:38:10.941Z,23.60
2018-07-22T06:40:39.565Z,23.00
2018-07-22T06:43:08.272Z,22.60
2018-07-22T06:45:36.852Z,22.50
2018-07-22T06:48:05.493Z,22.50
2018-07-22T06:50:34.123Z,22.90
2018-07-22T06:53:02.686Z,23.20
2018-07-22T06:55:31.317Z,23.20
2018-07-22T06:58:00.007Z,23.20
2018-07-22T07:00:28.572Z,24.10
2018-07-22T07:02:57.159Z,25.40
2018-07-22T07:05:25.808Z,27.00
2018-07-22T07:07:54.435Z,28.60
2018-07-22T07:10:23.033Z,29.60
2018-07-22T07:12:51.637Z,29.90
2018-07-22T07:15:20.223Z,30.70
2018-07-22T07:17:48.835Z,30.60
2018-07-22T07:20:17.497Z,29.50
2018-07-22T07:22:46.151Z,29.10
2018-07-22T07:25:14.763Z,28.60
2018-07-22T07:27:43.362Z,27.80
2018-07-22T07:30:11.951Z,27.20
2018-07-22T07:32:40.567Z,28.20
2018-07-22T07:35:09.153Z,29.60
2018-07-22T07:37:37.729Z,30.50
2018-07-22T07:40:06.408Z,31.10
2018-07-22T07:42:35.003Z,31.10
2018-07-22T07:45:03.845Z,30.40
2018-07-22T07:47:32.587Z,30.00
2018-07-22T07:50:01.403Z,31.10
2018-07-22T07:52:29.983Z,30.80
2018-07-22T07:54:58.650Z,29.80
2018-07-22T07:57:27.297Z,28.70
2018-07-22T07:59:55.951Z,27.60
2018-07-22T08:02:25.729Z,27.50
2018-07-22T08:04:54.585Z,28.50
2018-07-22T08:07:23.215Z,29.60
2018-07-22T08:09:51.799Z,31.10
2018-07-22T08:12:20.418Z,31.20
2018-07-22T08:14:49.046Z,31.80
2018-07-22T08:17:17.641Z,32.50
2018-07-22T08:19:46.276Z,33.50
2018-07-22T08:22:14.988Z,33.50
2018-07-22T08:24:43.891Z,33.70
2018-07-22T08:27:12.729Z,33.80
2018-07-22T08:29:41.324Z,33.10
2018-07-22T08:32:10.013Z,32.40
2018-07-22T08:34:38.729Z,30.80
2018-07-22T08:37:07.312Z,31.00
2018-07-22T08:39:35.893Z,32.00
2018-07-22T08:42:04.614Z,33.30
2018-07-22T08:44:33.345Z,33.80
2018-07-22T08:47:01.962Z,34.70
2018-07-22T08:49:30.761Z,34.70
2018-07-22T08:51:59.450Z,33.70
2018-07-22T08:54:28.059Z,33.30
2018-07-22T08:56:56.641Z,33.10
2018-07-22T08:59:25.207Z,32.40
2018-07-22T09:01:53.879Z,31.40
2018-07-22T09:04:22.491Z,30.50
2018-07-22T09:06:51.160Z,29.90
2018-07-22T09:09:19.822Z,29.70
2018-07-22T09:11:48.509Z,30.40
2018-07-22T09:14:17.039Z,29.70
2018-07-22T09:16:45.599Z,29.00
2018-07-22T09:19:14.261Z,27.90
2018-07-22T09:21:42.899Z,27.50
2018-07-22T09:24:11.484Z,27.20
2018-07-22T09:26:40.140Z,26.90
2018-07-22T09:29:08.821Z,26.30
2018-07-22T09:31:37.499Z,25.90
2018-07-22T09:34:06.205Z,25.70
2018-07-22T09:36:34.884Z,26.00
2018-07-22T09:39:04.470Z,26.40
2018-07-22T09:41:33.128Z,26.90
2018-07-22T09:44:01.694Z,27.80
2018-07-22T09:46:30.367Z,28.40
2018-07-22T09:48:59.022Z,28.90
2018-07-22T09:51:27.718Z,29.30
2018-07-22T09:53:56.357Z,29.10
2018-07-22T09:56:24.973Z,28.60
2018-07-22T09:58:53.573Z,28.30
2018-07-22T10:01:22.243Z,28.10
2018-07-22T10:03:50.863Z,28.30
2018-07-22T10:06:19.520Z,28.60
2018-07-22T10:08:48.149Z,29.40
2018-07-22T10:11:16.810Z,30.00
2018-07-22T10:13:45.331Z,29.70
2018-07-22T10:16:13.905Z,30.10
2018-07-22T10:18:42.473Z,29.90
2018-07-22T10:21:11.035Z,29.90
2018-07-22T10:23:39.604Z,30.90
2018-07-22T10:26:08.185Z,32.20
2018-07-22T10:28:36.962Z,31.80
2018-07-22T10:31:05.623Z,31.30
2018-07-22T10:33:34.325Z,31.10
2018-07-22T10:36:02.945Z,30.40
2018-07-22T10:38:31.581Z,29.70
2018-07-22T10:41:00.191Z,29.60
2018-07-22T10:43:28.790Z,29.50
2018-07-22T10:45:57.409Z,29.40
2018-07-22T10:48:26.011Z,29.00
2018-07-22T10:50:54.664Z,29.10
2018-07-22T10:53:23.294Z,28.90
2018-07-22T10:55:51.813Z,28.30
2018-07-22T10:58:20.423Z,27.50
2018-07-22T11:00:49.097Z,27.00
2018-07-22T11:03:17.741Z,26.90
2018-07-22T11:05:46.391Z,26.80
2018-07-22T11:08:14.965Z,26.70
2018-07-22T11:10:43.603Z,26.50
2018-07-22T11:13:12.217Z,26.20
2018-07-22T11:15:40.807Z,25.90
2018-07-22T11:18:09.451Z,26.00
2018-07-22T11:20:38.125Z,25.90
2018-07-22T11:23:06.763Z,25.70
2018-07-22T11:25:35.396Z,25.70
2018-07-22T11:28:04.121Z,25.60
2018-07-22T11:30:32.871Z,25.70
2018-07-22T11:33:01.522Z,25.50
2018-07-22T11:35:30.135Z,25.70
2018-07-22T11:37:58.852Z,26.10
2018-07-22T11:40:27.458Z,26.30
2018-07-22T11:42:56.075Z,26.20
2018-07-22T11:45:24.698Z,26.40
2018-07-22T11:47:53.278Z,26.60
2018-07-22T11:50:21.945Z,26.90
2018-07-22T11:52:50.554Z,26.50
2018-07-22T11:55:19.148Z,25.60
2018-07-22T11:57:47.778Z,25.10
2018-07-22T12:00:16.515Z,24.60
2018-07-22T12:02:45.175Z,24.30
2018-07-22T12:05:13.790Z,24.10
2018-07-22T12:07:42.456Z,24.00
2018-07-22T12:10:11.042Z,24.10
2018-07-22T12:12:39.816Z,23.60
2018-07-22T12:15:08.390Z,23.40
2018-07-22T12:17:37.076Z,23.40
2018-07-22T12:20:05.740Z,23.40
2018-07-22T12:22:34.402Z,23.60
2018-07-22T12:25:03.072Z,23.60
2018-07-22T12:27:31.848Z,23.90
2018-07-22T12:30:00.511Z,24.70
2018-07-22T12:32:29.179Z,26.30
2018-07-22T12:34:57.781Z,26.70
2018-07-22T12:37:26.471Z,26.50
2018-07-22T12:39:55.120Z,27.10
2018-07-22T12:42:23.994Z,27.60
2018-07-22T12:44:52.862Z,28.30
2018-07-22T12:47:21.546Z,29.10
2018-07-22T12:49:50.356Z,29.40
2018-07-22T12:52:19.010Z,29.70
2018-07-22T12:54:47.594Z,29.80
2018-07-22T12:57:16.439Z,30.10
2018-07-22T12:59:45.114Z,29.00
2018-07-22T13:02:13.870Z,28.20
2018-07-22T13:04:42.459Z,27.70
2018-07-22T13:07:11.098Z,27.90
2018-07-22T13:09:39.715Z,27.80
2018-07-22T13:12:08.353Z,27.60
2018-07-22T13:14:36.935Z,27.50
2018-07-22T13:17:05.560Z,27.10
2018-07-22T13:19:34.153Z,27.00
2018-07-22T13:22:02.739Z,27.00
2018-07-22T13:24:31.451Z,27.00
2018-07-22T13:27:00.073Z,26.90
2018-07-22T13:29:28.639Z,26.80
2018-07-22T13:31:57.233Z,26.40
2018-07-22T13:34:25.886Z,26.10
2018-07-22T13:36:54.465Z,25.90
2018-07-22T13:39:23.168Z,25.70
2018-07-22T13:41:51.765Z,25.40
2018-07-22T13:44:20.418Z,25.20
2018-07-22T13:46:49.009Z,25.00
2018-07-22T13:49:17.626Z,24.90
2018-07-22T13:51:46.246Z,24.70
2018-07-22T13:54:14.884Z,24.50
2018-07-22T13:56:43.488Z,24.40
2018-07-22T13:59:12.081Z,24.20
2018-07-22T14:01:40.742Z,24.00
2018-07-22T14:04:09.375Z,23.80
2018-07-22T14:06:38.014Z,23.60
2018-07-22T14:09:08.208Z,23.50
2018-07-22T14:11:36.911Z,23.50
2018-07-22T14:14:05.548Z,23.60
2018-07-22T14:16:34.207Z,23.60
2018-07-22T14:19:02.898Z,23.60
2018-07-22T14:21:31.753Z,23.70
2018-07-22T14:24:00.400Z,23.90
2018-07-22T14:26:29.150Z,24.00
2018-07-22T14:28:57.778Z,23.90
2018-07-22T14:31:26.426Z,23.90
2018-07-22T14:33:55.089Z,23.90
2018-07-22T14:36:23.736Z,23.90
2018-07-22T14:38:52.406Z,23.90
2018-07-22T14:41:21.034Z,23.90
2018-07-22T14:43:49.716Z,24.00
2018-07-22T14:46:18.480Z,24.00
2018-07-22T14:48:47.098Z,24.10
2018-07-22T14:51:15.719Z,24.20
2018-07-22T14:53:44.331Z,24.20
2018-07-22T14:56:12.919Z,24.30
2018-07-22T14:58:41.505Z,24.20
2018-07-22T15:01:12.439Z,24.20
2018-07-22T15:03:41.816Z,24.10
2018-07-22T15:06:10.460Z,24.20
2018-07-22T15:08:39.098Z,24.30
2018-07-22T15:11:07.762Z,24.40
2018-07-22T15:13:36.629Z,24.40
2018-07-22T15:16:05.496Z,24.20
2018-07-22T15:18:34.354Z,24.20
2018-07-22T15:21:03.114Z,24.10
2018-07-22T15:23:31.999Z,24.10
2018-07-22T15:26:00.661Z,24.00
2018-07-22T15:28:29.366Z,23.90
2018-07-22T15:30:58.080Z,23.90
2018-07-22T15:33:26.684Z,23.90
2018-07-22T15:35:55.309Z,23.90
2018-07-22T15:38:23.935Z,23.90
2018-07-22T15:40:52.645Z,23.90
2018-07-22T15:43:21.277Z,23.90
2018-07-22T15:45:56.220Z,24.00
2018-07-22T15:48:24.900Z,24.10
2018-07-22T15:50:53.554Z,24.20
2018-07-22T15:53:22.166Z,24.20
2018-07-22T15:55:50.906Z,24.20
2018-07-22T15:58:20.234Z,24.30
2018-07-22T16:00:48.868Z,24.40
2018-07-22T16:03:17.504Z,24.40
2018-07-22T16:05:46.224Z,24.50
2018-07-22T16:08:14.845Z,24.60
2018-07-22T16:10:43.499Z,24.60
2018-07-22T16:13:12.099Z,24.60
2018-07-22T16:15:40.755Z,24.60
2018-07-22T16:18:09.366Z,24.60
2018-07-22T16:20:37.945Z,24.50
2018-07-22T16:23:07.860Z,24.40
2018-07-22T16:25:36.467Z,24.40
2018-07-22T16:28:05.117Z,24.60
2018-07-22T16:30:33.743Z,24.60
2018-07-22T16:33:02.398Z,24.60
2018-07-22T16:35:31.004Z,24.60
2018-07-22T16:37:59.636Z,24.50
2018-07-22T16:40:28.271Z,24.50
2018-07-22T16:42:56.893Z,24.50
2018-07-22T16:45:25.474Z,24.50
2018-07-22T16:47:54.115Z,24.60
2018-07-22T16:50:22.729Z,24.60
2018-07-22T16:52:51.333Z,24.60
2018-07-22T16:55:19.995Z,24.40
2018-07-22T16:57:48.627Z,24.40
2018-07-22T17:00:17.276Z,24.30
2018-07-22T17:02:45.891Z,24.20
2018-07-22T17:05:14.557Z,24.20
2018-07-22T17:07:43.255Z,24.30
2018-07-22T17:10:11.822Z,24.40
2018-07-22T17:12:40.593Z,24.40
2018-07-22T17:15:09.213Z,24.40
2018-07-22T17:17:37.836Z,24.40
2018-07-22T17:20:06.502Z,24.30
2018-07-22T17:22:35.087Z,24.20
2018-07-22T17:25:03.707Z,24.20
2018-07-22T17:27:32.430Z,24.00
2018-07-22T17:30:01.103Z,23.80
2018-07-22T17:32:29.895Z,23.70
2018-07-22T17:34:58.595Z,23.60
2018-07-22T17:37:28.128Z,23.60
2018-07-22T17:39:59.654Z,23.50
2018-07-22T17:42:30.299Z,23.40
2018-07-22T17:44:59.159Z,23.40
2018-07-22T17:47:28.703Z,23.30
2018-07-22T17:49:57.686Z,23.20
2018-07-22T17:52:26.580Z,23.20
2018-07-22T17:54:55.217Z,23.30
2018-07-22T17:57:23.834Z,23.20
2018-07-22T17:59:52.501Z,23.20
2018-07-22T18:02:21.186Z,23.20
2018-07-22T18:04:49.778Z,23.20
2018-07-22T18:07:18.413Z,23.10
2018-07-22T18:09:47.057Z,22.60
2018-07-22T18:12:15.772Z,22.20
2018-07-22T18:14:44.462Z,21.90
2018-07-22T18:17:13.094Z,21.60
2018-07-22T18:19:41.712Z,21.50
2018-07-22T18:22:10.324Z,21.40
2018-07-22T18:24:38.978Z,21.40
2018-07-22T18:27:07.599Z,21.30
2018-07-22T18:29:36.341Z,21.20
2018-07-22T18:32:04.979Z,21.10
2018-07-22T18:34:33.608Z,21.00
2018-07-22T18:37:02.292Z,21.00
2018-07-22T18:39:30.800Z,20.90
2018-07-22T18:41:59.365Z,20.90
2018-07-22T18:44:27.998Z,20.80
2018-07-22T18:46:56.695Z,20.80
2018-07-22T18:49:25.364Z,20.80
2018-07-22T18:51:54.275Z,21.00
2018-07-22T18:54:23.207Z,21.10
2018-07-22T18:56:52.211Z,21.10
2018-07-22T18:59:21.206Z,21.20
2018-07-22T19:01:50.319Z,21.10
2018-07-22T19:04:19.220Z,21.10
2018-07-22T19:06:48.225Z,21.10
2018-07-22T19:09:17.085Z,21.10
2018-07-22T19:11:46.092Z,21.10
2018-07-22T19:14:15.083Z,21.00
2018-07-22T19:16:44.023Z,21.00
2018-07-22T19:19:13.200Z,21.00
2018-07-22T19:21:42.131Z,21.10
2018-07-22T19:24:11.106Z,21.10
2018-07-22T19:26:40.297Z,21.10
2018-07-22T19:29:09.271Z,21.00
2018-07-22T19:31:38.245Z,20.90
2018-07-22T19:34:07.208Z,20.70
2018-07-22T19:36:36.099Z,20.50
2018-07-22T19:39:06.981Z,20.40
2018-07-22T19:41:35.920Z,20.30
2018-07-22T19:44:04.887Z,20.40
2018-07-22T19:46:33.778Z,20.60
2018-07-22T19:49:02.874Z,20.60
2018-07-22T19:51:31.838Z,20.70
2018-07-22T19:54:00.742Z,20.50
2018-07-22T19:56:29.831Z,20.40
2018-07-22T19:58:58.799Z,20.60
2018-07-22T20:01:27.856Z,20.50
2018-07-22T20:03:56.920Z,20.70
2018-07-22T20:06:25.975Z,20.60
2018-07-22T20:08:55.025Z,20.70
2018-07-22T20:11:24.071Z,20.70
2018-07-22T20:13:53.098Z,20.80
2018-07-22T20:16:22.180Z,20.80
2018-07-22T20:18:51.217Z,20.80
2018-07-22T20:21:20.261Z,20.80
2018-07-22T20:23:49.380Z,20.70
2018-07-22T20:26:18.599Z,20.60
2018-07-22T20:28:47.569Z,20.50
2018-07-22T20:31:16.379Z,20.50
2018-07-22T20:33:45.426Z,20.40
2018-07-22T20:36:14.597Z,20.40
2018-07-22T20:38:45.027Z,20.40
2018-07-22T20:41:13.751Z,20.50
2018-07-22T20:43:42.540Z,20.50
2018-07-22T20:46:11.312Z,20.50
2018-07-22T20:48:40.054Z,20.40
2018-07-22T20:51:09.099Z,20.40
2018-07-22T20:53:37.939Z,20.40
2018-07-22T20:56:06.621Z,20.40
2018-07-22T20:58:35.282Z,20.30
2018-07-22T21:01:03.938Z,20.30
2018-07-22T21:03:32.548Z,20.40
2018-07-22T21:06:01.198Z,20.50
2018-07-22T21:08:29.934Z,20.50
2018-07-22T21:10:58.908Z,20.50
2018-07-22T21:13:28.130Z,20.60
2018-07-22T21:15:56.706Z,20.50
2018-07-22T21:18:25.282Z,20.50
2018-07-22T21:20:53.869Z,20.20
2018-07-22T21:23:22.461Z,20.10
2018-07-22T21:25:51.126Z,20.00
2018-07-22T21:28:19.784Z,19.90
2018-07-22T21:30:48.458Z,19.80
2018-07-22T21:33:17.104Z,19.80
2018-07-22T21:35:45.846Z,19.80
2018-07-22T21:38:14.567Z,19.90
2018-07-22T21:40:43.217Z,19.90
2018-07-22T21:43:11.792Z,19.80
2018-07-22T21:45:40.455Z,19.90
2018-07-22T21:48:09.108Z,19.90
2018-07-22T21:50:37.845Z,19.90
2018-07-22T21:53:08.335Z,19.80
2018-07-22T21:55:36.904Z,19.70
2018-07-22T21:58:05.573Z,19.60
2018-07-22T22:00:39.488Z,19.70
2018-07-22T22:03:08.124Z,19.90
2018-07-22T22:05:36.730Z,19.90
2018-07-22T22:08:05.432Z,19.90
2018-07-22T22:10:34.053Z,19.90
2018-07-22T22:13:02.672Z,20.00
2018-07-22T22:15:32.129Z,20.00
2018-07-22T22:18:02.041Z,19.90
2018-07-22T22:20:30.967Z,20.00
2018-07-22T22:22:59.654Z,19.90
2018-07-22T22:25:28.316Z,19.70
2018-07-22T22:27:56.903Z,19.90
2018-07-22T22:30:25.622Z,20.10
2018-07-22T22:32:54.233Z,20.10
2018-07-22T22:35:22.881Z,20.10
2018-07-22T22:37:51.472Z,19.90
2018-07-22T22:40:20.030Z,19.80
2018-07-22T22:42:48.608Z,19.80
2018-07-22T22:45:17.170Z,20.10
2018-07-22T22:47:45.746Z,20.20
2018-07-22T22:50:14.322Z,20.20
2018-07-22T22:52:42.966Z,20.10
2018-07-22T22:55:11.537Z,20.00
2018-07-22T22:57:44.757Z,20.00
2018-07-22T23:00:13.418Z,20.20
2018-07-22T23:02:41.986Z,20.20
2018-07-22T23:05:10.562Z,20.10
2018-07-22T23:07:39.138Z,20.10
2018-07-22T23:10:07.737Z,20.10
2018-07-22T23:12:36.314Z,20.10
2018-07-22T23:15:04.926Z,20.10
2018-07-22T23:17:33.608Z,19.90
2018-07-22T23:20:02.201Z,19.90
2018-07-22T23:22:30.771Z,20.00
2018-07-22T23:24:59.343Z,20.00
2018-07-22T23:27:27.900Z,19.90
2018-07-22T23:29:56.483Z,19.80
2018-07-22T23:32:25.020Z,19.80
2018-07-22T23:34:53.576Z,19.80
2018-07-22T23:37:22.171Z,19.90
2018-07-22T23:39:50.735Z,19.90
2018-07-22T23:42:19.310Z,20.00
2018-07-22T23:44:47.997Z,20.00
2018-07-22T23:47:16.569Z,19.90
2018-07-22T23:49:45.196Z,19.90
2018-07-22T23:52:13.755Z,20.00
2018-07-22T23:54:42.301Z,20.00
2018-07-22T23:57:10.876Z,20.10
2018-07-22T23:59:39.457Z,20.00
